createdAt,value
2022-08-17T00:00:42.878Z,39.00
2022-08-17T00:02:56.642Z,39.00
2022-08-17T00:04:59.696Z,39.00
2022-08-17T00:07:01.389Z,39.00
2022-08-17T00:09:03.990Z,39.00
2022-08-17T00:11:07.075Z,39.00
2022-08-17T00:13:10.418Z,39.00
2022-08-17T00:15:13.295Z,38.90
2022-08-17T00:17:14.871Z,38.90
2022-08-17T00:19:22.873Z,39.00
2022-08-17T00:21:25.310Z,38.90
2022-08-17T00:23:27.513Z,38.90
2022-08-17T00:25:29.086Z,39.00
2022-08-17T00:27:30.649Z,38.90
2022-08-17T00:29:32.242Z,38.80
2022-08-17T00:31:35.498Z,38.90
2022-08-17T00:33:37.541Z,39.00
2022-08-17T00:35:39.764Z,39.00
2022-08-17T00:37:41.646Z,38.90
2022-08-17T00:39:43.495Z,39.00
2022-08-17T00:41:45.284Z,38.90
2022-08-17T00:43:48.763Z,39.00
2022-08-17T00:45:50.343Z,39.00
2022-08-17T00:47:51.907Z,39.00
2022-08-17T00:49:53.983Z,39.00
2022-08-17T00:51:58.095Z,39.00
2022-08-17T00:54:02.585Z,39.60
2022-08-17T00:56:05.879Z,39.00
2022-08-17T00:58:07.696Z,39.00
2022-08-17T01:00:09.623Z,39.00
2022-08-17T01:02:12.571Z,39.00
2022-08-17T01:04:15.116Z,39.00
2022-08-17T01:06:16.989Z,39.00
2022-08-17T01:08:21.624Z,39.00
2022-08-17T01:11:00.679Z,39.00
2022-08-17T01:12:49.422Z,39.00
2022-08-17T01:14:51.152Z,39.00
2022-08-17T01:16:54.129Z,39.10
2022-08-17T01:18:58.388Z,39.00
2022-08-17T01:21:03.284Z,39.00
2022-08-17T01:23:04.888Z,38.90
2022-08-17T01:25:07.889Z,39.00
2022-08-17T01:27:10.623Z,39.00
2022-08-17T01:29:12.772Z,39.10
2022-08-17T01:31:14.585Z,39.00
2022-08-17T01:33:16.161Z,39.00
2022-08-17T01:35:17.826Z,39.00
2022-08-17T01:37:20.832Z,39.00
2022-08-17T01:39:31.354Z,39.00
2022-08-17T01:41:33.732Z,39.00
2022-08-17T01:43:39.192Z,38.90
2022-08-17T01:45:42.624Z,39.00
2022-08-17T01:47:44.271Z,39.00
2022-08-17T01:49:45.860Z,38.90
2022-08-17T01:51:47.564Z,38.90
2022-08-17T01:53:51.656Z,38.90
2022-08-17T01:55:55.341Z,38.90
2022-08-17T01:57:58.172Z,39.00
2022-08-17T02:00:00.857Z,39.10
2022-08-17T02:02:02.578Z,39.00
2022-08-17T02:04:05.806Z,38.90
2022-08-17T02:06:27.131Z,38.90
2022-08-17T02:08:38.998Z,38.90
2022-08-17T02:10:46.883Z,39.00
2022-08-17T02:12:50.440Z,39.00
2022-08-17T02:14:52.221Z,39.00
2022-08-17T02:16:54.308Z,38.90
2022-08-17T02:18:55.896Z,39.00
2022-08-17T02:20:57.512Z,38.90
2022-08-17T02:23:02.239Z,39.00
2022-08-17T02:25:04.876Z,39.00
2022-08-17T02:27:06.801Z,39.00
2022-08-17T02:29:08.396Z,39.00
2022-08-17T02:31:11.251Z,38.90
2022-08-17T02:33:12.819Z,39.00
2022-08-17T02:35:14.998Z,39.00
2022-08-17T02:37:20.979Z,38.90
2022-08-17T02:39:22.612Z,39.00
2022-08-17T02:41:24.237Z,38.90
2022-08-17T02:43:27.426Z,39.00
2022-08-17T02:45:29.171Z,38.90
2022-08-17T02:47:31.185Z,39.60
2022-08-17T02:49:32.836Z,38.90
2022-08-17T02:51:35.174Z,39.00
2022-08-17T02:53:36.772Z,39.00
2022-08-17T02:55:40.345Z,38.90
2022-08-17T02:57:42.241Z,38.90
2022-08-17T02:59:48.786Z,38.90
2022-08-17T03:01:50.782Z,38.90
2022-08-17T03:03:52.391Z,38.90
2022-08-17T03:05:53.975Z,38.90
2022-08-17T03:07:56.076Z,38.90
2022-08-17T03:09:57.648Z,38.90
2022-08-17T03:12:06.475Z,38.90
2022-08-17T03:14:08.184Z,39.00
2022-08-17T03:16:09.865Z,38.90
2022-08-17T03:18:19.159Z,38.90
2022-08-17T03:20:27.913Z,38.80
2022-08-17T03:22:36.713Z,38.90
2022-08-17T03:24:39.982Z,39.00
2022-08-17T03:26:41.602Z,39.10
2022-08-17T03:28:43.336Z,39.00
2022-08-17T03:30:44.975Z,38.90
2022-08-17T03:32:48.268Z,38.90
2022-08-17T03:34:49.857Z,38.90
2022-08-17T03:36:51.468Z,38.90
2022-08-17T03:38:53.093Z,38.90
2022-08-17T03:40:59.716Z,39.00
2022-08-17T03:43:05.321Z,38.90
2022-08-17T03:45:17.883Z,38.90
2022-08-17T03:47:37.987Z,38.90
2022-08-17T03:50:01.487Z,38.90
2022-08-17T03:52:22.084Z,38.90
2022-08-17T03:54:42.508Z,38.90
2022-08-17T03:56:45.963Z,38.90
2022-08-17T03:58:48.181Z,38.90
2022-08-17T04:00:50.466Z,38.90
2022-08-17T04:02:52.227Z,38.90
2022-08-17T04:04:54.150Z,38.90
2022-08-17T04:06:56.219Z,38.90
2022-08-17T04:08:57.820Z,38.90
2022-08-17T04:11:00.290Z,38.80
2022-08-17T04:13:02.155Z,38.90
2022-08-17T04:15:03.878Z,38.90
2022-08-17T04:17:05.611Z,38.90
2022-08-17T04:19:07.252Z,38.80
2022-08-17T04:21:09.167Z,38.90
2022-08-17T04:23:12.116Z,38.90
2022-08-17T04:25:15.125Z,38.80
2022-08-17T04:27:16.725Z,38.80
2022-08-17T04:29:18.479Z,38.80
2022-08-17T04:31:20.265Z,38.90
2022-08-17T04:33:23.929Z,38.80
2022-08-17T04:35:27.253Z,38.90
2022-08-17T04:37:28.821Z,38.90
2022-08-17T04:39:33.797Z,38.90
2022-08-17T04:41:54.282Z,38.90
2022-08-17T04:43:56.020Z,38.90
2022-08-17T04:45:59.058Z,38.80
2022-08-17T04:48:01.084Z,38.80
2022-08-17T04:50:03.981Z,38.80
2022-08-17T04:52:05.602Z,38.90
2022-08-17T04:54:09.225Z,38.90
2022-08-17T04:56:17.059Z,38.90
2022-08-17T04:58:20.946Z,38.90
2022-08-17T05:00:25.580Z,38.90
2022-08-17T05:02:27.177Z,38.90
2022-08-17T05:04:34.343Z,38.90
2022-08-17T05:06:36.937Z,38.80
2022-08-17T05:08:39.029Z,38.80
2022-08-17T05:10:45.323Z,38.90
2022-08-17T05:12:47.321Z,38.90
2022-08-17T05:14:48.907Z,38.80
2022-08-17T05:16:51.081Z,38.90
2022-08-17T05:18:52.991Z,38.80
2022-08-17T05:20:54.672Z,38.80
2022-08-17T05:22:58.092Z,38.70
2022-08-17T05:24:59.734Z,38.90
2022-08-17T05:27:06.613Z,38.90
2022-08-17T05:29:08.418Z,38.80
2022-08-17T05:31:10.919Z,38.80
2022-08-17T05:33:13.991Z,38.80
2022-08-17T05:35:15.576Z,38.80
2022-08-17T05:37:17.132Z,38.70
2022-08-17T05:39:18.711Z,38.70
2022-08-17T05:41:20.342Z,38.60
2022-08-17T05:43:27.031Z,38.60
2022-08-17T05:45:55.713Z,38.70
2022-08-17T05:47:50.951Z,38.80
2022-08-17T05:49:53.862Z,38.70
2022-08-17T05:52:03.334Z,38.80
2022-08-17T05:54:07.951Z,38.70
2022-08-17T05:56:27.969Z,38.70
2022-08-17T05:58:50.040Z,38.60
2022-08-17T06:01:11.951Z,38.60
2022-08-17T06:03:32.614Z,38.70
2022-08-17T06:05:52.893Z,38.70
2022-08-17T06:08:23.805Z,38.70
2022-08-17T06:10:38.837Z,38.70
2022-08-17T06:12:52.441Z,39.30
2022-08-17T06:15:12.711Z,38.60
2022-08-17T06:17:18.056Z,38.60
2022-08-17T06:19:24.172Z,38.60
2022-08-17T06:21:31.999Z,38.50
2022-08-17T06:23:36.123Z,38.50
2022-08-17T06:25:51.899Z,38.50
2022-08-17T06:27:55.651Z,38.50
2022-08-17T06:30:13.195Z,38.50
2022-08-17T06:32:14.960Z,38.50
2022-08-17T06:34:16.666Z,38.50
2022-08-17T06:36:24.574Z,38.50
2022-08-17T06:38:37.246Z,38.40
2022-08-17T06:40:47.292Z,38.50
2022-08-17T06:43:05.188Z,38.60
2022-08-17T06:45:15.079Z,38.50
2022-08-17T06:47:28.756Z,38.50
2022-08-17T06:49:40.486Z,38.50
2022-08-17T06:52:02.323Z,38.50
2022-08-17T06:54:06.626Z,38.60
2022-08-17T06:56:09.879Z,38.50
2022-08-17T06:58:15.546Z,38.50
2022-08-17T07:00:23.079Z,38.50
2022-08-17T07:02:52.109Z,38.50
2022-08-17T07:04:55.014Z,38.40
2022-08-17T07:07:24.764Z,38.50
2022-08-17T07:09:29.351Z,38.50
2022-08-17T07:11:50.381Z,38.50
2022-08-17T07:14:03.571Z,38.50
2022-08-17T07:16:25.830Z,38.40
2022-08-17T07:18:29.577Z,38.60
2022-08-17T07:20:31.395Z,38.50
2022-08-17T07:22:59.289Z,38.40
2022-08-17T07:25:07.355Z,38.40
2022-08-17T07:27:23.172Z,38.50
2022-08-17T07:29:24.844Z,38.40
2022-08-17T07:31:28.486Z,38.50
2022-08-17T07:33:31.699Z,38.50
2022-08-17T07:35:41.281Z,38.70
2022-08-17T07:37:55.478Z,38.60
2022-08-17T07:40:14.727Z,38.40
2022-08-17T07:42:17.485Z,38.60
2022-08-17T07:44:19.112Z,38.50
2022-08-17T07:46:41.121Z,38.80
2022-08-17T07:48:44.899Z,38.60
2022-08-17T07:50:49.478Z,38.80
2022-08-17T07:52:52.613Z,38.70
2022-08-17T07:54:54.583Z,38.80
2022-08-17T07:56:56.169Z,39.10
2022-08-17T07:59:08.204Z,38.90
2022-08-17T08:01:11.710Z,39.60
2022-08-17T08:03:24.663Z,39.60
2022-08-17T08:05:49.212Z,39.60
2022-08-17T08:07:56.372Z,39.70
2022-08-17T08:10:07.031Z,39.50
2022-08-17T08:12:21.266Z,39.30
2022-08-17T08:14:31.222Z,39.50
2022-08-17T08:16:32.800Z,39.30
2022-08-17T08:18:54.497Z,39.30
2022-08-17T08:21:00.274Z,39.50
2022-08-17T08:23:18.564Z,39.30
2022-08-17T08:25:24.274Z,39.40
2022-08-17T08:27:30.288Z,39.60
2022-08-17T08:29:40.815Z,40.20
2022-08-17T08:31:51.652Z,40.20
2022-08-17T08:34:02.727Z,40.00
2022-08-17T08:36:14.648Z,40.40
2022-08-17T08:38:44.599Z,40.20
2022-08-17T08:40:49.310Z,40.20
2022-08-17T08:42:50.876Z,40.40
2022-08-17T08:45:05.407Z,40.00
2022-08-17T08:47:26.441Z,39.80
2022-08-17T08:49:59.480Z,40.00
2022-08-17T08:51:55.469Z,39.90
2022-08-17T08:54:03.721Z,39.80
2022-08-17T08:56:10.945Z,39.80
2022-08-17T08:58:31.854Z,39.70
2022-08-17T09:00:43.748Z,40.00
2022-08-17T09:02:48.431Z,39.80
2022-08-17T09:05:16.091Z,39.80
2022-08-17T09:07:34.717Z,40.20
2022-08-17T09:09:39.275Z,40.30
2022-08-17T09:12:02.759Z,40.10
2022-08-17T09:14:21.602Z,40.10
2022-08-17T09:16:29.584Z,39.90
2022-08-17T09:19:02.676Z,40.30
2022-08-17T09:20:59.954Z,40.40
2022-08-17T09:23:10.452Z,40.40
2022-08-17T09:25:15.116Z,40.60
2022-08-17T09:27:21.934Z,40.40
2022-08-17T09:29:25.382Z,40.60
2022-08-17T09:31:35.339Z,40.80
2022-08-17T09:33:48.894Z,41.40
2022-08-17T09:35:59.547Z,42.00
2022-08-17T09:38:01.216Z,41.60
2022-08-17T09:40:08.680Z,41.70
2022-08-17T09:42:14.241Z,41.70
2022-08-17T09:44:34.368Z,41.90
2022-08-17T09:46:39.160Z,42.50
2022-08-17T09:49:04.023Z,42.10
2022-08-17T09:51:21.295Z,42.10
2022-08-17T09:53:22.871Z,42.00
2022-08-17T09:55:31.649Z,42.10
2022-08-17T09:57:42.449Z,41.90
2022-08-17T09:59:52.892Z,41.90
2022-08-17T10:02:13.644Z,41.80
2022-08-17T10:04:23.811Z,41.60
2022-08-17T10:06:33.997Z,41.60
2022-08-17T10:08:52.984Z,41.40
2022-08-17T10:10:56.710Z,41.00
2022-08-17T10:13:02.944Z,41.00
2022-08-17T10:15:15.792Z,41.00
2022-08-17T10:17:22.845Z,40.80
2022-08-17T10:20:00.035Z,40.30
2022-08-17T10:22:34.994Z,40.30
2022-08-17T10:25:23.588Z,40.20
2022-08-17T10:27:32.055Z,40.30
2022-08-17T10:29:49.213Z,40.50
2022-08-17T10:32:12.597Z,40.80
2022-08-17T10:34:29.475Z,40.80
2022-08-17T10:36:46.154Z,41.00
2022-08-17T10:39:02.911Z,41.50
2022-08-17T10:41:16.859Z,41.90
2022-08-17T10:43:21.676Z,41.70
2022-08-17T10:45:26.841Z,42.20
2022-08-17T10:47:55.144Z,43.00
2022-08-17T10:50:17.656Z,43.60
2022-08-17T10:52:19.328Z,43.90
2022-08-17T10:54:32.942Z,44.70
2022-08-17T10:56:42.788Z,43.80
2022-08-17T10:58:50.544Z,44.30
2022-08-17T11:00:53.283Z,43.90
2022-08-17T11:02:55.816Z,43.80
2022-08-17T11:05:00.390Z,44.00
2022-08-17T11:07:07.644Z,43.80
2022-08-17T11:09:33.726Z,43.90
2022-08-17T11:11:54.463Z,43.50
2022-08-17T11:14:08.652Z,43.50
2022-08-17T11:16:10.212Z,43.50
2022-08-17T11:18:26.024Z,43.40
2022-08-17T11:20:59.756Z,43.20
2022-08-17T11:23:19.993Z,43.20
2022-08-17T11:25:31.436Z,43.10
2022-08-17T11:27:34.484Z,42.90
2022-08-17T11:29:52.633Z,42.90
2022-08-17T11:32:01.503Z,42.90
2022-08-17T11:34:04.528Z,42.90
2022-08-17T11:36:21.836Z,42.70
2022-08-17T11:38:29.003Z,42.50
2022-08-17T11:40:33.358Z,42.60
2022-08-17T11:42:42.114Z,42.50
2022-08-17T11:44:51.548Z,42.30
2022-08-17T11:47:17.637Z,42.40
2022-08-17T11:50:04.378Z,42.40
2022-08-17T11:52:14.582Z,42.20
2022-08-17T11:54:32.204Z,42.20
2022-08-17T11:56:34.188Z,42.20
2022-08-17T11:58:37.796Z,42.20
2022-08-17T12:00:40.545Z,42.10
2022-08-17T12:02:48.480Z,42.10
2022-08-17T12:05:26.015Z,42.10
2022-08-17T12:07:28.263Z,42.10
2022-08-17T12:09:31.983Z,42.00
2022-08-17T12:11:56.248Z,41.90
2022-08-17T12:14:04.735Z,41.90
2022-08-17T12:16:07.140Z,41.80
2022-08-17T12:18:08.769Z,41.80
2022-08-17T12:20:30.857Z,41.70
2022-08-17T12:22:38.217Z,41.70
2022-08-17T12:25:02.795Z,41.70
2022-08-17T12:27:05.923Z,41.70
2022-08-17T12:29:18.408Z,41.60
2022-08-17T12:31:50.168Z,41.60
2022-08-17T12:33:51.877Z,42.20
2022-08-17T12:35:59.590Z,41.50
2022-08-17T12:38:03.284Z,41.40
2022-08-17T12:40:06.810Z,41.50
2022-08-17T12:42:21.242Z,41.50
2022-08-17T12:44:43.257Z,41.40
2022-08-17T12:46:53.866Z,41.30
2022-08-17T12:49:10.599Z,41.20
2022-08-17T12:51:12.217Z,41.30
2022-08-17T12:53:20.370Z,41.30
2022-08-17T12:55:23.334Z,41.30
2022-08-17T12:57:27.876Z,41.20
2022-08-17T12:59:32.979Z,41.20
2022-08-17T13:01:38.753Z,41.10
2022-08-17T13:03:45.404Z,41.10
2022-08-17T13:05:52.878Z,41.10
2022-08-17T13:07:55.402Z,41.00
2022-08-17T13:09:57.131Z,41.00
2022-08-17T13:11:59.875Z,40.90
2022-08-17T13:14:09.045Z,40.90
2022-08-17T13:16:14.318Z,40.80
2022-08-17T13:18:35.520Z,40.70
2022-08-17T13:20:37.100Z,40.80
2022-08-17T13:22:38.879Z,40.70
2022-08-17T13:24:49.264Z,40.80
2022-08-17T13:26:54.427Z,40.70
2022-08-17T13:28:56.540Z,40.80
2022-08-17T13:31:16.966Z,40.80
2022-08-17T13:33:34.909Z,40.70
2022-08-17T13:35:50.196Z,40.70
2022-08-17T13:38:12.451Z,40.70
2022-08-17T13:40:14.052Z,40.70
2022-08-17T13:42:33.831Z,40.70
2022-08-17T13:44:54.087Z,40.70
2022-08-17T13:46:57.151Z,40.70
2022-08-17T13:49:01.789Z,40.60
2022-08-17T13:51:14.136Z,40.70
2022-08-17T13:53:21.698Z,40.60
2022-08-17T13:55:23.531Z,40.60
2022-08-17T13:57:25.484Z,40.40
2022-08-17T13:59:53.326Z,40.40
2022-08-17T14:01:53.456Z,40.40
2022-08-17T14:03:56.104Z,40.50
2022-08-17T14:05:57.733Z,40.40
2022-08-17T14:08:01.570Z,40.50
2022-08-17T14:10:11.114Z,40.50
2022-08-17T14:12:16.013Z,40.50
2022-08-17T14:14:17.650Z,40.50
2022-08-17T14:16:20.609Z,40.40
2022-08-17T14:18:35.545Z,40.40
2022-08-17T14:20:44.181Z,40.30
2022-08-17T14:22:49.470Z,40.30
2022-08-17T14:24:53.844Z,40.30
2022-08-17T14:26:56.051Z,40.30
2022-08-17T14:28:57.735Z,40.30
2022-08-17T14:31:00.288Z,40.30
2022-08-17T14:33:02.254Z,40.30
2022-08-17T14:35:05.243Z,40.30
2022-08-17T14:37:06.817Z,40.30
2022-08-17T14:39:09.220Z,40.20
2022-08-17T14:41:18.751Z,40.30
2022-08-17T14:43:23.514Z,40.30
2022-08-17T14:45:31.494Z,40.30
2022-08-17T14:47:35.509Z,40.30
2022-08-17T14:49:37.088Z,40.30
2022-08-17T14:51:44.119Z,40.30
2022-08-17T14:53:46.337Z,40.30
2022-08-17T14:55:49.732Z,40.20
2022-08-17T14:57:51.451Z,40.20
2022-08-17T14:59:55.050Z,40.20
2022-08-17T15:01:57.583Z,40.30
2022-08-17T15:04:00.243Z,40.20
2022-08-17T15:06:02.712Z,40.20
2022-08-17T15:08:05.367Z,40.20
2022-08-17T15:10:08.813Z,40.20
2022-08-17T15:12:15.377Z,40.20
2022-08-17T15:14:16.984Z,40.10
2022-08-17T15:16:19.991Z,40.10
2022-08-17T15:18:21.671Z,40.20
2022-08-17T15:20:25.062Z,40.20
2022-08-17T15:22:29.775Z,40.20
2022-08-17T15:24:31.382Z,40.20
2022-08-17T15:26:33.028Z,40.20
2022-08-17T15:28:34.771Z,40.20
2022-08-17T15:30:36.442Z,40.20
2022-08-17T15:32:39.140Z,40.20
2022-08-17T15:34:40.703Z,40.20
2022-08-17T15:36:47.912Z,40.20
2022-08-17T15:38:51.509Z,40.10
2022-08-17T15:40:53.776Z,40.20
2022-08-17T15:42:55.412Z,40.10
2022-08-17T15:44:57.014Z,40.10
2022-08-17T15:46:58.978Z,40.00
2022-08-17T15:49:00.562Z,40.10
2022-08-17T15:51:02.156Z,40.10
2022-08-17T15:53:04.774Z,40.10
2022-08-17T15:55:09.108Z,40.10
2022-08-17T15:57:10.675Z,40.10
2022-08-17T15:59:12.401Z,40.10
2022-08-17T16:01:44.594Z,40.00
2022-08-17T16:04:01.413Z,40.10
2022-08-17T16:06:00.268Z,40.10
2022-08-17T16:08:02.326Z,40.10
2022-08-17T16:10:05.941Z,40.10
2022-08-17T16:12:16.146Z,40.00
2022-08-17T16:14:17.721Z,40.00
2022-08-17T16:16:20.603Z,40.00
2022-08-17T16:18:23.650Z,40.10
2022-08-17T16:20:25.273Z,40.10
2022-08-17T16:22:37.893Z,40.00
2022-08-17T16:24:45.869Z,40.00
2022-08-17T16:26:58.561Z,40.00
2022-08-17T16:29:01.705Z,40.10
2022-08-17T16:31:03.729Z,40.00
2022-08-17T16:33:05.353Z,40.00
2022-08-17T16:35:09.286Z,40.00
2022-08-17T16:37:11.272Z,40.00
2022-08-17T16:39:12.979Z,40.00
2022-08-17T16:41:34.676Z,40.10
2022-08-17T16:43:36.365Z,40.00
2022-08-17T16:45:40.224Z,40.00
2022-08-17T16:47:42.832Z,40.00
2022-08-17T16:49:44.964Z,40.70
2022-08-17T16:51:48.323Z,40.00
2022-08-17T16:53:59.243Z,40.00
2022-08-17T16:56:01.221Z,40.00
2022-08-17T16:58:04.312Z,40.00
2022-08-17T17:00:07.991Z,40.00
2022-08-17T17:02:12.677Z,40.00
2022-08-17T17:04:17.138Z,40.00
2022-08-17T17:06:29.269Z,40.00
2022-08-17T17:08:33.568Z,40.00
2022-08-17T17:10:37.887Z,39.90
2022-08-17T17:13:02.518Z,40.00
2022-08-17T17:15:02.211Z,40.00
2022-08-17T17:17:05.932Z,40.00
2022-08-17T17:19:14.880Z,39.90
2022-08-17T17:21:18.987Z,39.90
2022-08-17T17:23:23.538Z,40.00
2022-08-17T17:25:33.988Z,40.00
2022-08-17T17:27:47.035Z,39.90
2022-08-17T17:29:49.212Z,39.90
2022-08-17T17:31:56.707Z,39.90
2022-08-17T17:34:01.602Z,39.90
2022-08-17T17:36:21.667Z,39.90
2022-08-17T17:38:25.048Z,39.90
2022-08-17T17:40:38.983Z,40.50
2022-08-17T17:42:42.112Z,39.90
2022-08-17T17:44:45.820Z,39.90
2022-08-17T17:46:53.274Z,39.90
2022-08-17T17:48:55.147Z,39.90
2022-08-17T17:50:56.693Z,39.90
2022-08-17T17:53:07.485Z,39.90
2022-08-17T17:55:09.043Z,39.90
2022-08-17T17:57:28.962Z,40.00
2022-08-17T17:59:56.605Z,40.00
2022-08-17T18:02:01.015Z,40.00
2022-08-17T18:04:23.679Z,39.90
2022-08-17T18:06:25.296Z,40.00
2022-08-17T18:08:41.950Z,40.00
2022-08-17T18:11:04.710Z,39.90
2022-08-17T18:13:09.542Z,40.00
2022-08-17T18:15:21.548Z,39.90
2022-08-17T18:17:23.601Z,39.80
2022-08-17T18:19:27.106Z,39.80
2022-08-17T18:21:32.195Z,39.90
2022-08-17T18:23:34.012Z,39.80
2022-08-17T18:25:38.647Z,39.80
2022-08-17T18:27:49.520Z,39.80
2022-08-17T18:29:53.130Z,39.80
2022-08-17T18:32:13.164Z,39.80
2022-08-17T18:34:45.758Z,39.80
2022-08-17T18:36:46.748Z,39.80
2022-08-17T18:38:49.803Z,39.80
2022-08-17T18:40:59.024Z,39.80
2022-08-17T18:43:00.671Z,39.80
2022-08-17T18:45:02.279Z,39.80
2022-08-17T18:47:13.574Z,39.80
2022-08-17T18:49:26.085Z,39.80
2022-08-17T18:51:42.358Z,39.80
2022-08-17T18:53:44.509Z,39.80
2022-08-17T18:55:46.269Z,39.90
2022-08-17T18:57:52.407Z,40.00
2022-08-17T18:59:54.190Z,39.90
2022-08-17T19:02:05.128Z,39.90
2022-08-17T19:04:15.563Z,40.00
2022-08-17T19:06:30.080Z,39.90
2022-08-17T19:08:31.632Z,39.90
2022-08-17T19:10:46.861Z,39.90
2022-08-17T19:13:00.399Z,39.90
2022-08-17T19:15:02.850Z,39.90
2022-08-17T19:17:09.949Z,39.90
2022-08-17T19:19:16.059Z,39.90
2022-08-17T19:21:23.036Z,39.90
2022-08-17T19:23:53.554Z,39.90
2022-08-17T19:25:58.372Z,39.90
2022-08-17T19:28:22.254Z,39.90
2022-08-17T19:30:24.982Z,39.90
2022-08-17T19:32:27.984Z,39.90
2022-08-17T19:34:34.059Z,40.00
2022-08-17T19:36:40.914Z,40.00
2022-08-17T19:38:45.468Z,40.00
2022-08-17T19:40:54.677Z,40.00
2022-08-17T19:43:34.963Z,40.00
2022-08-17T19:45:36.543Z,40.00
2022-08-17T19:47:58.602Z,40.00
2022-08-17T19:50:04.944Z,40.00
2022-08-17T19:52:17.024Z,40.00
2022-08-17T19:54:21.632Z,40.00
2022-08-17T19:56:49.498Z,40.00
2022-08-17T19:58:57.085Z,39.90
2022-08-17T20:00:58.926Z,39.90
2022-08-17T20:03:06.616Z,40.00
2022-08-17T20:05:13.377Z,40.00
2022-08-17T20:07:17.764Z,40.00
2022-08-17T20:09:39.969Z,40.00
2022-08-17T20:11:45.171Z,40.00
2022-08-17T20:13:58.422Z,40.00
2022-08-17T20:16:00.080Z,40.00
2022-08-17T20:18:05.623Z,40.00
2022-08-17T20:20:19.549Z,40.00
2022-08-17T20:22:24.651Z,40.00
2022-08-17T20:24:26.448Z,40.00
2022-08-17T20:26:55.489Z,40.00
2022-08-17T20:29:06.531Z,40.00
2022-08-17T20:31:30.804Z,40.00
2022-08-17T20:33:35.035Z,40.00
2022-08-17T20:35:37.252Z,40.00
2022-08-17T20:37:43.057Z,40.00
2022-08-17T20:39:44.674Z,40.00
2022-08-17T20:42:04.094Z,40.00
2022-08-17T20:44:05.797Z,40.00
2022-08-17T20:46:12.363Z,40.00
2022-08-17T20:48:36.356Z,39.90
2022-08-17T20:50:43.466Z,39.90
2022-08-17T20:52:48.402Z,39.90
2022-08-17T20:54:51.040Z,39.90
2022-08-17T20:56:56.112Z,39.90
2022-08-17T20:58:58.908Z,39.90
2022-08-17T21:01:11.116Z,39.90
2022-08-17T21:03:22.425Z,40.60
2022-08-17T21:05:32.369Z,39.90
2022-08-17T21:07:43.715Z,40.00
2022-08-17T21:10:08.471Z,39.90
2022-08-17T21:12:11.787Z,39.90
2022-08-17T21:14:31.982Z,39.90
2022-08-17T21:16:54.637Z,40.00
2022-08-17T21:19:11.619Z,40.00
2022-08-17T21:21:17.405Z,40.00
2022-08-17T21:23:25.556Z,40.00
2022-08-17T21:25:37.109Z,39.90
2022-08-17T21:28:04.121Z,40.00
2022-08-17T21:30:05.663Z,40.00
2022-08-17T21:32:09.053Z,39.90
2022-08-17T21:34:23.469Z,40.00
2022-08-17T21:36:25.901Z,40.70
2022-08-17T21:38:34.724Z,40.00
2022-08-17T21:40:36.458Z,40.00
2022-08-17T21:42:39.312Z,40.00
2022-08-17T21:44:50.623Z,40.00
2022-08-17T21:46:53.048Z,40.10
2022-08-17T21:48:55.203Z,40.00
2022-08-17T21:51:03.675Z,40.00
2022-08-17T21:53:05.594Z,40.00
2022-08-17T21:55:07.548Z,40.70
2022-08-17T21:57:15.515Z,40.00
2022-08-17T21:59:31.717Z,40.00
2022-08-17T22:01:39.011Z,40.00
2022-08-17T22:03:40.868Z,40.00
2022-08-17T22:05:42.459Z,40.10
2022-08-17T22:07:50.585Z,40.00
2022-08-17T22:09:52.271Z,40.10
2022-08-17T22:11:56.643Z,40.10
2022-08-17T22:14:05.360Z,40.10
2022-08-17T22:16:15.606Z,40.10
2022-08-17T22:18:31.017Z,40.10
2022-08-17T22:20:32.725Z,40.00
2022-08-17T22:22:56.088Z,40.00
2022-08-17T22:25:05.853Z,40.20
2022-08-17T22:27:11.575Z,40.20
2022-08-17T22:29:32.047Z,40.10
2022-08-17T22:31:54.100Z,40.20
2022-08-17T22:34:01.626Z,40.20
2022-08-17T22:36:22.567Z,40.30
2022-08-17T22:38:24.916Z,40.20
2022-08-17T22:40:30.283Z,40.30
2022-08-17T22:42:31.969Z,40.30
2022-08-17T22:44:36.358Z,40.30
2022-08-17T22:46:39.948Z,40.20
2022-08-17T22:48:54.780Z,40.30
2022-08-17T22:51:22.871Z,40.20
2022-08-17T22:53:43.016Z,40.30
2022-08-17T22:56:15.204Z,40.20
2022-08-17T22:58:37.095Z,40.10
2022-08-17T23:00:38.714Z,40.10
2022-08-17T23:02:53.054Z,40.20
2022-08-17T23:05:10.013Z,40.30
2022-08-17T23:07:11.603Z,40.80
2022-08-17T23:09:13.187Z,40.20
2022-08-17T23:11:14.988Z,40.20
2022-08-17T23:13:16.784Z,40.20
2022-08-17T23:15:19.180Z,40.20
2022-08-17T23:17:20.895Z,40.10
2022-08-17T23:19:22.580Z,40.10
2022-08-17T23:21:29.518Z,40.30
2022-08-17T23:23:31.114Z,40.40
2022-08-17T23:25:34.150Z,40.30
2022-08-17T23:27:36.725Z,40.40
2022-08-17T23:29:41.326Z,40.40
2022-08-17T23:31:42.975Z,40.40
2022-08-17T23:33:45.649Z,40.30
2022-08-17T23:35:47.233Z,40.50
2022-08-17T23:37:48.823Z,40.30
2022-08-17T23:39:50.450Z,40.50
2022-08-17T23:41:53.449Z,40.50
2022-08-17T23:43:55.358Z,40.50
2022-08-17T23:45:59.557Z,40.50
2022-08-17T23:48:02.250Z,40.50
2022-08-17T23:50:05.408Z,40.50
2022-08-17T23:52:09.834Z,40.50
2022-08-17T23:54:13.922Z,40.60
2022-08-17T23:56:15.696Z,40.50
2022-08-17T23:58:20.284Z,40.60
